createdAt,value
2018-04-22T00:00:16.102Z,41.36
2018-04-22T00:00:48.132Z,41.27
2018-04-22T00:01:20.175Z,41.27
2018-04-22T00:01:52.206Z,41.46
2018-04-22T00:02:24.252Z,41.36
2018-04-22T00:02:56.373Z,41.36
2018-04-22T00:03:28.402Z,41.75
2018-04-22T00:04:00.436Z,41.27
2018-04-22T00:04:32.486Z,41.46
2018-04-22T00:05:04.575Z,41.27
2018-04-22T00:05:36.588Z,41.36
2018-04-22T00:06:08.587Z,41.36
2018-04-22T00:06:41.482Z,41.36
2018-04-22T00:07:13.499Z,41.27
2018-04-22T00:07:45.511Z,41.27
2018-04-22T00:08:17.515Z,41.36
2018-04-22T00:08:49.565Z,41.46
2018-04-22T00:09:21.587Z,41.36
2018-04-22T00:09:53.619Z,41.27
2018-04-22T00:10:25.588Z,41.36
2018-04-22T00:10:57.590Z,41.36
2018-04-22T00:11:29.647Z,41.36
2018-04-22T00:12:01.688Z,41.36
2018-04-22T00:12:33.713Z,41.27
2018-04-22T00:13:05.765Z,41.36
2018-04-22T00:13:37.823Z,41.55
2018-04-22T00:14:09.854Z,41.36
2018-04-22T00:14:41.937Z,41.36
2018-04-22T00:15:13.962Z,41.55
2018-04-22T00:15:45.996Z,41.75
2018-04-22T00:16:18.112Z,41.44
2018-04-22T00:16:50.157Z,41.75
2018-04-22T00:17:22.161Z,41.82
2018-04-22T00:17:54.185Z,41.75
2018-04-22T00:18:26.233Z,41.65
2018-04-22T00:18:58.267Z,41.65
2018-04-22T00:19:30.335Z,41.75
2018-04-22T00:20:02.369Z,41.72
2018-04-22T00:20:34.430Z,41.63
2018-04-22T00:21:06.491Z,41.63
2018-04-22T00:21:38.473Z,41.53
2018-04-22T00:22:10.499Z,41.72
2018-04-22T00:22:42.529Z,41.55
2018-04-22T00:23:14.551Z,41.63
2018-04-22T00:23:46.590Z,41.53
2018-04-22T00:24:18.648Z,41.53
2018-04-22T00:24:50.683Z,41.53
2018-04-22T00:25:22.728Z,41.72
2018-04-22T00:25:54.724Z,41.53
2018-04-22T00:26:26.764Z,41.34
2018-04-22T00:26:58.780Z,41.44
2018-04-22T00:27:30.822Z,41.63
2018-04-22T00:28:02.857Z,41.53
2018-04-22T00:28:34.861Z,41.72
2018-04-22T00:29:06.972Z,41.53
2018-04-22T00:29:38.964Z,41.82
2018-04-22T00:30:11.007Z,41.53
2018-04-22T00:30:43.056Z,41.44
2018-04-22T00:31:15.132Z,41.63
2018-04-22T00:31:47.152Z,41.44
2018-04-22T00:32:19.215Z,41.44
2018-04-22T00:32:51.170Z,41.44
2018-04-22T00:33:23.182Z,41.63
2018-04-22T00:33:55.225Z,41.63
2018-04-22T00:34:27.258Z,41.44
2018-04-22T00:34:59.272Z,41.63
2018-04-22T00:35:31.277Z,41.44
2018-04-22T00:36:03.323Z,41.53
2018-04-22T00:36:35.359Z,41.63
2018-04-22T00:37:07.415Z,41.63
2018-04-22T00:37:39.512Z,41.82
2018-04-22T00:38:11.616Z,41.53
2018-04-22T00:38:43.648Z,41.63
2018-04-22T00:39:15.708Z,41.63
2018-04-22T00:39:47.800Z,41.72
2018-04-22T00:40:19.818Z,41.72
2018-04-22T00:40:51.846Z,41.63
2018-04-22T00:41:23.964Z,41.63
2018-04-22T00:41:56.041Z,41.63
2018-04-22T00:42:28.041Z,41.53
2018-04-22T00:43:00.062Z,41.63
2018-04-22T00:43:32.059Z,41.72
2018-04-22T00:44:04.167Z,41.63
2018-04-22T00:44:36.199Z,41.63
2018-04-22T00:45:08.315Z,41.63
2018-04-22T00:45:40.995Z,41.53
2018-04-22T00:46:13.092Z,41.63
2018-04-22T00:46:45.906Z,41.53
2018-04-22T00:47:17.891Z,41.53
2018-04-22T00:47:50.601Z,41.63
2018-04-22T00:48:22.618Z,41.82
2018-04-22T00:48:54.620Z,41.63
2018-04-22T00:49:26.717Z,41.53
2018-04-22T00:49:58.735Z,41.53
2018-04-22T00:50:30.781Z,41.53
2018-04-22T00:51:02.794Z,41.53
2018-04-22T00:51:34.780Z,41.63
2018-04-22T00:52:06.815Z,41.53
2018-04-22T00:52:38.821Z,41.63
2018-04-22T00:53:10.834Z,41.44
2018-04-22T00:53:42.838Z,41.63
2018-04-22T00:54:14.901Z,41.53
2018-04-22T00:54:46.978Z,41.53
2018-04-22T00:55:19.004Z,42.11
2018-04-22T00:55:51.008Z,41.63
2018-04-22T00:56:23.049Z,41.44
2018-04-22T00:56:55.071Z,41.44
2018-04-22T00:57:27.101Z,41.53
2018-04-22T00:57:59.150Z,41.53
2018-04-22T00:58:31.205Z,41.53
2018-04-22T00:59:03.235Z,41.53
2018-04-22T00:59:35.299Z,41.44
2018-04-22T01:00:07.335Z,41.53
2018-04-22T01:00:39.395Z,41.44
2018-04-22T01:01:11.379Z,41.53
2018-04-22T01:01:43.428Z,42.11
2018-04-22T01:02:15.478Z,41.92
2018-04-22T01:02:47.500Z,41.72
2018-04-22T01:03:19.495Z,41.72
2018-04-22T01:03:51.657Z,42.02
2018-04-22T01:04:23.837Z,41.72
2018-04-22T01:04:55.854Z,41.71
2018-04-22T01:05:27.877Z,41.44
2018-04-22T01:05:59.915Z,41.92
2018-04-22T01:06:31.929Z,41.72
2018-04-22T01:07:03.951Z,42.02
2018-04-22T01:07:36.003Z,41.82
2018-04-22T01:08:08.022Z,41.53
2018-04-22T01:08:40.043Z,41.72
2018-04-22T01:09:12.080Z,41.72
2018-04-22T01:09:44.136Z,41.63
2018-04-22T01:10:16.150Z,41.82
2018-04-22T01:10:48.321Z,41.72
2018-04-22T01:11:20.405Z,41.71
2018-04-22T01:11:52.441Z,41.71
2018-04-22T01:12:24.478Z,41.8
2018-04-22T01:12:56.532Z,41.61
2018-04-22T01:13:28.597Z,41.63
2018-04-22T01:14:00.646Z,42.21
2018-04-22T01:14:32.685Z,41.71
2018-04-22T01:15:04.736Z,41.71
2018-04-22T01:15:36.850Z,41.72
2018-04-22T01:16:08.848Z,41.99
2018-04-22T01:16:40.867Z,41.71
2018-04-22T01:17:12.894Z,41.99
2018-04-22T01:17:44.928Z,41.71
2018-04-22T01:18:16.960Z,41.89
2018-04-22T01:18:49.000Z,42.09
2018-04-22T01:19:21.037Z,41.61
2018-04-22T01:19:53.065Z,41.72
2018-04-22T01:20:25.098Z,41.71
2018-04-22T01:20:57.287Z,41.72
2018-04-22T01:21:29.307Z,41.71
2018-04-22T01:22:01.350Z,41.99
2018-04-22T01:22:33.369Z,41.71
2018-04-22T01:23:05.414Z,41.61
2018-04-22T01:23:37.438Z,41.61
2018-04-22T01:24:09.485Z,41.71
2018-04-22T01:24:42.222Z,41.99
2018-04-22T01:25:14.256Z,41.61
2018-04-22T01:25:46.308Z,41.71
2018-04-22T01:26:18.316Z,41.61
2018-04-22T01:26:50.316Z,42.09
2018-04-22T01:27:22.285Z,41.51
2018-04-22T01:27:54.320Z,41.71
2018-04-22T01:28:26.318Z,41.61
2018-04-22T01:28:58.324Z,41.99
2018-04-22T01:29:30.370Z,41.89
2018-04-22T01:30:02.355Z,41.51
2018-04-22T01:30:34.391Z,41.71
2018-04-22T01:31:06.448Z,42.09
2018-04-22T01:31:38.605Z,41.51
2018-04-22T01:32:10.633Z,41.71
2018-04-22T01:32:42.642Z,41.61
2018-04-22T01:33:14.696Z,42.09
2018-04-22T01:33:46.753Z,41.61
2018-04-22T01:34:18.773Z,41.61
2018-04-22T01:34:50.823Z,41.99
2018-04-22T01:35:22.876Z,41.61
2018-04-22T01:35:54.942Z,41.89
2018-04-22T01:36:26.974Z,41.61
2018-04-22T01:36:59.020Z,41.51
2018-04-22T01:37:31.033Z,41.71
2018-04-22T01:38:03.070Z,41.61
2018-04-22T01:38:35.076Z,41.61
2018-04-22T01:39:07.158Z,41.71
2018-04-22T01:39:39.263Z,41.61
2018-04-22T01:40:11.280Z,41.61
2018-04-22T01:40:43.339Z,41.61
2018-04-22T01:41:15.398Z,41.51
2018-04-22T01:41:47.439Z,41.61
2018-04-22T01:42:19.465Z,41.99
2018-04-22T01:42:51.494Z,41.71
2018-04-22T01:43:23.563Z,41.61
2018-04-22T01:43:55.571Z,41.99
2018-04-22T01:44:27.622Z,41.61
2018-04-22T01:44:59.812Z,41.61
2018-04-22T01:45:32.733Z,41.71
2018-04-22T01:46:04.761Z,41.51
2018-04-22T01:46:37.545Z,41.61
2018-04-22T01:47:09.537Z,41.51
2018-04-22T01:47:41.599Z,41.51
2018-04-22T01:48:13.611Z,41.51
2018-04-22T01:48:45.621Z,41.71
2018-04-22T01:49:17.703Z,41.61
2018-04-22T01:49:49.754Z,41.89
2018-04-22T01:50:21.781Z,41.89
2018-04-22T01:50:53.820Z,41.89
2018-04-22T01:51:25.874Z,41.89
2018-04-22T01:51:57.901Z,41.61
2018-04-22T01:52:29.951Z,41.71
2018-04-22T01:53:01.967Z,41.71
2018-04-22T01:53:34.015Z,41.89
2018-04-22T01:54:06.005Z,41.61
2018-04-22T01:54:38.053Z,41.89
2018-04-22T01:55:10.118Z,41.99
2018-04-22T01:55:42.125Z,41.8
2018-04-22T01:56:14.123Z,41.71
2018-04-22T01:56:46.296Z,41.89
2018-04-22T01:57:18.315Z,41.8
2018-04-22T01:57:50.344Z,41.61
2018-04-22T01:58:22.371Z,41.51
2018-04-22T01:58:54.428Z,41.61
2018-04-22T01:59:26.477Z,41.61
2018-04-22T01:59:58.626Z,41.61
2018-04-22T02:00:30.685Z,41.71
2018-04-22T02:01:02.726Z,41.61
2018-04-22T02:01:34.760Z,41.61
2018-04-22T02:02:06.746Z,41.71
2018-04-22T02:02:38.759Z,41.88
2018-04-22T02:03:10.766Z,41.8
2018-04-22T02:03:42.790Z,41.51
2018-04-22T02:04:14.803Z,41.88
2018-04-22T02:04:46.841Z,41.89
2018-04-22T02:05:18.884Z,41.68
2018-04-22T02:05:50.897Z,41.99
2018-04-22T02:06:22.913Z,41.51
2018-04-22T02:06:54.942Z,41.89
2018-04-22T02:07:26.957Z,41.8
2018-04-22T02:07:59.008Z,41.51
2018-04-22T02:08:31.045Z,41.59
2018-04-22T02:09:03.204Z,41.61
2018-04-22T02:09:35.339Z,41.68
2018-04-22T02:10:07.374Z,41.51
2018-04-22T02:10:39.410Z,41.78
2018-04-22T02:11:11.418Z,41.51
2018-04-22T02:11:43.535Z,41.78
2018-04-22T02:12:15.569Z,41.8
2018-04-22T02:12:47.610Z,41.88
2018-04-22T02:13:19.668Z,41.88
2018-04-22T02:13:51.707Z,41.78
2018-04-22T02:14:23.890Z,41.78
2018-04-22T02:14:55.807Z,41.78
2018-04-22T02:15:27.841Z,41.49
2018-04-22T02:15:59.901Z,41.68
2018-04-22T02:16:31.917Z,41.88
2018-04-22T02:17:03.971Z,41.78
2018-04-22T02:17:35.976Z,41.88
2018-04-22T02:18:07.985Z,41.78
2018-04-22T02:18:40.088Z,41.68
2018-04-22T02:19:12.202Z,41.68
2018-04-22T02:19:44.231Z,41.78
2018-04-22T02:20:16.205Z,41.88
2018-04-22T02:20:48.265Z,41.59
2018-04-22T02:21:20.309Z,41.88
2018-04-22T02:21:52.339Z,41.78
2018-04-22T02:22:24.405Z,41.59
2018-04-22T02:22:56.432Z,41.78
2018-04-22T02:23:28.459Z,41.88
2018-04-22T02:24:00.509Z,41.78
2018-04-22T02:24:32.574Z,41.78
2018-04-22T02:25:04.622Z,41.68
2018-04-22T02:25:36.657Z,41.61
2018-04-22T02:26:09.623Z,41.68
2018-04-22T02:26:41.657Z,41.68
2018-04-22T02:27:13.748Z,41.68
2018-04-22T02:27:45.827Z,41.68
2018-04-22T02:28:17.896Z,41.68
2018-04-22T02:28:49.941Z,41.78
2018-04-22T02:29:21.981Z,41.78
2018-04-22T02:29:54.104Z,41.78
2018-04-22T02:30:26.162Z,41.78
2018-04-22T02:30:58.220Z,41.68
2018-04-22T02:31:30.205Z,41.78
2018-04-22T02:32:02.254Z,41.88
2018-04-22T02:32:34.271Z,41.68
2018-04-22T02:33:06.327Z,41.68
2018-04-22T02:33:38.359Z,41.68
2018-04-22T02:34:10.412Z,41.68
2018-04-22T02:34:42.470Z,41.78
2018-04-22T02:35:14.516Z,41.68
2018-04-22T02:35:46.605Z,41.68
2018-04-22T02:36:18.611Z,41.78
2018-04-22T02:36:50.656Z,41.78
2018-04-22T02:37:22.705Z,41.78
2018-04-22T02:37:54.763Z,41.68
2018-04-22T02:38:26.822Z,41.88
2018-04-22T02:38:58.860Z,41.88
2018-04-22T02:39:30.932Z,41.78
2018-04-22T02:40:03.462Z,41.88
2018-04-22T02:40:35.516Z,41.68
2018-04-22T02:41:07.543Z,41.59
2018-04-22T02:41:39.593Z,41.68
2018-04-22T02:42:11.634Z,41.88
2018-04-22T02:42:43.684Z,41.78
2018-04-22T02:43:15.737Z,41.59
2018-04-22T02:43:47.758Z,41.88
2018-04-22T02:44:19.818Z,41.78
2018-04-22T02:44:51.872Z,41.59
2018-04-22T02:45:23.902Z,41.68
2018-04-22T02:45:55.928Z,41.78
2018-04-22T02:46:27.971Z,41.59
2018-04-22T02:47:00.116Z,41.68
2018-04-22T02:47:32.166Z,42.26
2018-04-22T02:48:04.163Z,41.68
2018-04-22T02:48:36.174Z,42.16
2018-04-22T02:49:08.262Z,41.59
2018-04-22T02:49:40.322Z,41.78
2018-04-22T02:50:12.305Z,42.07
2018-04-22T02:50:44.367Z,41.59
2018-04-22T02:51:16.379Z,41.68
2018-04-22T02:51:48.410Z,41.68
2018-04-22T02:52:20.521Z,41.68
2018-04-22T02:52:52.578Z,41.97
2018-04-22T02:53:24.619Z,41.68
2018-04-22T02:53:56.676Z,41.88
2018-04-22T02:54:28.738Z,41.78
2018-04-22T02:55:00.789Z,41.88
2018-04-22T02:55:32.795Z,41.68
2018-04-22T02:56:04.852Z,41.78
2018-04-22T02:56:36.899Z,41.78
2018-04-22T02:57:08.939Z,41.88
2018-04-22T02:57:40.959Z,41.78
2018-04-22T02:58:13.011Z,41.88
2018-04-22T02:58:45.148Z,41.88
2018-04-22T02:59:17.243Z,41.68
2018-04-22T02:59:49.264Z,41.88
2018-04-22T03:00:21.288Z,41.68
2018-04-22T03:00:53.366Z,41.68
2018-04-22T03:01:25.429Z,41.78
2018-04-22T03:01:57.463Z,41.88
2018-04-22T03:02:29.495Z,42.16
2018-04-22T03:03:01.529Z,41.88
2018-04-22T03:03:33.539Z,41.78
2018-04-22T03:04:05.575Z,41.78
2018-04-22T03:04:37.715Z,41.88
2018-04-22T03:05:09.699Z,41.88
2018-04-22T03:05:41.739Z,41.78
2018-04-22T03:06:13.779Z,41.78
2018-04-22T03:06:45.990Z,41.78
2018-04-22T03:07:18.053Z,41.88
2018-04-22T03:07:50.091Z,41.97
2018-04-22T03:08:22.135Z,41.97
2018-04-22T03:08:54.145Z,41.68
2018-04-22T03:09:26.175Z,41.88
2018-04-22T03:09:58.235Z,41.88
2018-04-22T03:10:30.414Z,41.76
2018-04-22T03:11:02.437Z,42.07
2018-04-22T03:11:34.489Z,41.88
2018-04-22T03:12:06.515Z,41.78
2018-04-22T03:12:38.619Z,41.88
2018-04-22T03:13:10.620Z,41.97
2018-04-22T03:13:42.685Z,41.97
2018-04-22T03:14:14.702Z,41.95
2018-04-22T03:14:46.735Z,41.97
2018-04-22T03:15:18.752Z,41.88
2018-04-22T03:15:50.767Z,41.88
2018-04-22T03:16:22.872Z,41.88
2018-04-22T03:16:54.906Z,42.07
2018-04-22T03:17:26.919Z,41.88
2018-04-22T03:17:58.974Z,41.86
2018-04-22T03:18:31.068Z,41.97
2018-04-22T03:19:03.087Z,41.86
2018-04-22T03:19:35.103Z,41.95
2018-04-22T03:20:07.115Z,41.88
2018-04-22T03:20:39.145Z,41.95
2018-04-22T03:21:11.179Z,41.88
2018-04-22T03:21:43.232Z,41.88
2018-04-22T03:22:15.328Z,42.05
2018-04-22T03:22:47.325Z,41.86
2018-04-22T03:23:19.388Z,41.86
2018-04-22T03:23:51.448Z,41.86
2018-04-22T03:24:23.483Z,42.05
2018-04-22T03:24:55.546Z,41.86
2018-04-22T03:25:27.539Z,41.86
2018-04-22T03:25:59.630Z,41.76
2018-04-22T03:26:31.651Z,41.86
2018-04-22T03:27:03.670Z,41.95
2018-04-22T03:27:35.704Z,42.05
2018-04-22T03:28:07.737Z,41.76
2018-04-22T03:28:39.773Z,41.95
2018-04-22T03:29:11.884Z,41.95
2018-04-22T03:29:43.894Z,41.86
2018-04-22T03:30:15.923Z,41.95
2018-04-22T03:30:47.957Z,41.86
2018-04-22T03:31:20.013Z,41.95
2018-04-22T03:31:52.088Z,41.95
2018-04-22T03:32:24.144Z,41.76
2018-04-22T03:32:56.162Z,41.95
2018-04-22T03:33:28.189Z,41.95
2018-04-22T03:34:00.197Z,41.95
2018-04-22T03:34:32.285Z,41.86
2018-04-22T03:35:04.337Z,42.05
2018-04-22T03:35:36.382Z,41.86
2018-04-22T03:36:08.515Z,41.95
2018-04-22T03:36:40.606Z,41.86
2018-04-22T03:37:12.626Z,41.95
2018-04-22T03:37:44.653Z,41.86
2018-04-22T03:38:16.675Z,41.95
2018-04-22T03:38:48.837Z,41.86
2018-04-22T03:39:20.856Z,41.95
2018-04-22T03:39:52.886Z,41.95
2018-04-22T03:40:24.911Z,42.05
2018-04-22T03:40:56.914Z,41.95
2018-04-22T03:41:28.948Z,41.76
2018-04-22T03:42:00.984Z,42.05
2018-04-22T03:42:33.034Z,42.05
2018-04-22T03:43:05.147Z,42.05
2018-04-22T03:43:37.159Z,41.95
2018-04-22T03:44:09.224Z,41.95
2018-04-22T03:44:41.275Z,41.86
2018-04-22T03:45:13.297Z,42.05
2018-04-22T03:45:45.271Z,41.95
2018-04-22T03:46:17.397Z,41.95
2018-04-22T03:46:49.422Z,41.86
2018-04-22T03:47:21.444Z,41.86
2018-04-22T03:47:53.476Z,41.95
2018-04-22T03:48:25.498Z,41.95
2018-04-22T03:48:57.502Z,41.86
2018-04-22T03:49:29.621Z,42.05
2018-04-22T03:50:01.644Z,41.95
2018-04-22T03:50:33.675Z,42.05
2018-04-22T03:51:05.706Z,41.95
2018-04-22T03:51:37.819Z,42.05
2018-04-22T03:52:09.868Z,41.95
2018-04-22T03:52:41.905Z,42.05
2018-04-22T03:53:13.960Z,41.95
2018-04-22T03:53:46.046Z,41.95
2018-04-22T03:54:18.099Z,41.95
2018-04-22T03:54:50.144Z,41.95
2018-04-22T03:55:22.284Z,42.05
2018-04-22T03:55:54.272Z,41.95
2018-04-22T03:56:26.308Z,42.14
2018-04-22T03:56:58.311Z,42.05
2018-04-22T03:57:30.382Z,41.95
2018-04-22T03:58:02.444Z,41.95
2018-04-22T03:58:34.476Z,42.05
2018-04-22T03:59:06.514Z,42.05
2018-04-22T03:59:38.562Z,41.95
2018-04-22T04:00:10.554Z,41.95
2018-04-22T04:00:42.579Z,42.14
2018-04-22T04:01:14.601Z,42.05
2018-04-22T04:01:46.655Z,41.95
2018-04-22T04:02:18.668Z,42.05
2018-04-22T04:02:50.721Z,42.14
2018-04-22T04:03:22.719Z,42.05
2018-04-22T04:03:54.752Z,42.05
2018-04-22T04:04:26.866Z,42.05
2018-04-22T04:04:58.877Z,41.95
2018-04-22T04:05:30.875Z,42.05
2018-04-22T04:06:02.924Z,41.95
2018-04-22T04:06:35.007Z,42.05
2018-04-22T04:07:07.061Z,42.05
2018-04-22T04:07:39.100Z,41.95
2018-04-22T04:08:11.152Z,42.14
2018-04-22T04:08:43.165Z,42.05
2018-04-22T04:09:15.202Z,42.05
2018-04-22T04:09:47.243Z,42.05
2018-04-22T04:10:19.405Z,42.05
2018-04-22T04:10:51.522Z,41.95
2018-04-22T04:11:23.494Z,42.05
2018-04-22T04:11:55.518Z,42.14
2018-04-22T04:12:27.656Z,41.95
2018-04-22T04:12:59.706Z,41.95
2018-04-22T04:13:31.731Z,42.14
2018-04-22T04:14:03.781Z,42.05
2018-04-22T04:14:35.832Z,41.95
2018-04-22T04:15:07.844Z,42.14
2018-04-22T04:15:39.881Z,41.95
2018-04-22T04:16:11.950Z,42.14
2018-04-22T04:16:43.960Z,41.95
2018-04-22T04:17:15.975Z,41.95
2018-04-22T04:17:48.002Z,42.14
2018-04-22T04:18:20.063Z,42.05
2018-04-22T04:18:52.104Z,41.95
2018-04-22T04:19:24.159Z,41.95
2018-04-22T04:19:56.240Z,42.05
2018-04-22T04:20:28.271Z,42.05
2018-04-22T04:21:00.376Z,42.05
2018-04-22T04:21:33.115Z,42.05
2018-04-22T04:22:05.124Z,41.95
2018-04-22T04:22:37.138Z,41.95
2018-04-22T04:23:09.164Z,42.05
2018-04-22T04:23:41.207Z,42.05
2018-04-22T04:24:13.249Z,42.05
2018-04-22T04:24:45.257Z,41.95
2018-04-22T04:25:17.264Z,41.95
2018-04-22T04:25:49.298Z,42.05
2018-04-22T04:26:21.301Z,42.05
2018-04-22T04:26:53.326Z,42.14
2018-04-22T04:27:25.356Z,41.95
2018-04-22T04:27:57.390Z,42.05
2018-04-22T04:28:29.441Z,42.03
2018-04-22T04:29:01.474Z,42.14
2018-04-22T04:29:33.494Z,42.05
2018-04-22T04:30:05.510Z,41.95
2018-04-22T04:30:37.589Z,41.86
2018-04-22T04:31:09.610Z,42.05
2018-04-22T04:31:41.644Z,42.05
2018-04-22T04:32:13.694Z,41.95
2018-04-22T04:32:45.685Z,42.05
2018-04-22T04:33:17.715Z,42.05
2018-04-22T04:33:49.749Z,42.05
2018-04-22T04:34:21.910Z,41.95
2018-04-22T04:34:54.039Z,42.05
2018-04-22T04:35:26.053Z,41.95
2018-04-22T04:35:58.157Z,42.05
2018-04-22T04:36:30.233Z,42.05
2018-04-22T04:37:02.280Z,41.93
2018-04-22T04:37:34.299Z,41.95
2018-04-22T04:38:06.295Z,42.05
2018-04-22T04:38:38.332Z,42.05
2018-04-22T04:39:10.339Z,42.05
2018-04-22T04:39:42.386Z,41.95
2018-04-22T04:40:14.548Z,42.05
2018-04-22T04:40:46.567Z,42.12
2018-04-22T04:41:18.618Z,42.05
2018-04-22T04:41:50.648Z,41.95
2018-04-22T04:42:22.668Z,41.95
2018-04-22T04:42:54.661Z,42.05
2018-04-22T04:43:26.755Z,42.24
2018-04-22T04:43:58.897Z,42.05
2018-04-22T04:44:31.036Z,42.14
2018-04-22T04:45:03.080Z,42.14
2018-04-22T04:45:35.094Z,42.05
2018-04-22T04:46:07.122Z,42.05
2018-04-22T04:46:39.132Z,42.05
2018-04-22T04:47:11.190Z,41.95
2018-04-22T04:47:43.181Z,41.95
2018-04-22T04:48:15.185Z,42.03
2018-04-22T04:48:47.226Z,41.95
2018-04-22T04:49:19.262Z,41.95
2018-04-22T04:49:51.298Z,41.95
2018-04-22T04:50:23.334Z,42.05
2018-04-22T04:50:55.361Z,41.95
2018-04-22T04:51:27.510Z,42.14
2018-04-22T04:51:59.573Z,42.05
2018-04-22T04:52:31.611Z,42.05
2018-04-22T04:53:03.660Z,41.95
2018-04-22T04:53:35.692Z,42.05
2018-04-22T04:54:07.757Z,42.05
2018-04-22T04:54:39.760Z,41.95
2018-04-22T04:55:11.790Z,42.14
2018-04-22T04:55:43.843Z,41.95
2018-04-22T04:56:15.859Z,41.95
2018-04-22T04:56:47.824Z,41.95
2018-04-22T04:57:19.872Z,42.05
2018-04-22T04:57:51.901Z,42.05
2018-04-22T04:58:23.940Z,42.05
2018-04-22T04:58:56.002Z,42.05
2018-04-22T04:59:28.064Z,41.95
2018-04-22T05:00:00.112Z,42.14
2018-04-22T05:00:32.211Z,42.05
2018-04-22T05:01:04.261Z,42.05
2018-04-22T05:01:36.270Z,42.05
2018-04-22T05:02:08.308Z,41.95
2018-04-22T05:02:40.354Z,42.14
2018-04-22T05:03:12.396Z,41.95
2018-04-22T05:03:44.433Z,41.95
2018-04-22T05:04:16.443Z,42.05
2018-04-22T05:04:48.437Z,42.24
2018-04-22T05:05:20.469Z,42.05
2018-04-22T05:05:52.507Z,42.05
2018-04-22T05:06:24.541Z,42.05
2018-04-22T05:06:56.528Z,41.95
2018-04-22T05:07:28.530Z,41.95
2018-04-22T05:08:00.553Z,42.05
2018-04-22T05:08:32.602Z,42.05
2018-04-22T05:09:04.713Z,42.05
2018-04-22T05:09:36.861Z,41.86
2018-04-22T05:10:08.915Z,42.05
2018-04-22T05:10:41.028Z,42.05
2018-04-22T05:11:13.056Z,41.95
2018-04-22T05:11:45.072Z,41.95
2018-04-22T05:12:17.066Z,41.95
2018-04-22T05:12:49.088Z,41.95
2018-04-22T05:13:21.151Z,41.95
2018-04-22T05:13:53.189Z,41.95
2018-04-22T05:14:25.229Z,41.95
2018-04-22T05:14:57.211Z,41.95
2018-04-22T05:15:29.209Z,42.05
2018-04-22T05:16:01.226Z,42.05
2018-04-22T05:16:33.294Z,41.95
2018-04-22T05:17:05.318Z,41.95
2018-04-22T05:17:37.376Z,42.14
2018-04-22T05:18:09.348Z,42.05
2018-04-22T05:18:41.389Z,42.05
2018-04-22T05:19:13.429Z,42.05
2018-04-22T05:19:45.511Z,42.05
2018-04-22T05:20:17.536Z,41.95
2018-04-22T05:20:49.572Z,42.05
2018-04-22T05:21:21.617Z,42.05
2018-04-22T05:21:53.673Z,42.05
2018-04-22T05:22:25.682Z,42.05
2018-04-22T05:22:57.698Z,42.05
2018-04-22T05:23:29.722Z,41.95
2018-04-22T05:24:01.714Z,42.05
2018-04-22T05:24:33.772Z,42.05
2018-04-22T05:25:05.857Z,41.95
2018-04-22T05:25:38.723Z,41.95
2018-04-22T05:26:10.773Z,41.95
2018-04-22T05:26:42.808Z,42.05
2018-04-22T05:27:14.796Z,42.05
2018-04-22T05:27:46.815Z,42.05
2018-04-22T05:28:18.859Z,41.86
2018-04-22T05:28:50.863Z,42.05
2018-04-22T05:29:22.898Z,41.86
2018-04-22T05:29:54.971Z,41.86
2018-04-22T05:30:27.011Z,42.05
2018-04-22T05:30:59.058Z,41.86
2018-04-22T05:31:31.090Z,41.95
2018-04-22T05:32:03.252Z,42.05
2018-04-22T05:32:35.319Z,42.05
2018-04-22T05:33:07.343Z,41.86
2018-04-22T05:33:39.361Z,42.05
2018-04-22T05:34:12.313Z,42.05
2018-04-22T05:34:44.352Z,41.95
2018-04-22T05:35:16.350Z,42.05
2018-04-22T05:35:48.389Z,42.05
2018-04-22T05:36:20.366Z,42.05
2018-04-22T05:36:52.484Z,42.05
2018-04-22T05:37:24.571Z,41.95
2018-04-22T05:37:56.587Z,41.86
2018-04-22T05:38:28.611Z,41.86
2018-04-22T05:39:00.603Z,41.86
2018-04-22T05:39:32.655Z,42.05
2018-04-22T05:40:04.712Z,41.86
2018-04-22T05:40:36.825Z,41.76
2018-04-22T05:41:08.804Z,41.76
2018-04-22T05:41:40.801Z,41.95
2018-04-22T05:42:12.820Z,41.95
2018-04-22T05:42:44.865Z,41.95
2018-04-22T05:43:16.893Z,41.88
2018-04-22T05:43:48.972Z,41.97
2018-04-22T05:44:21.084Z,41.88
2018-04-22T05:44:53.095Z,41.95
2018-04-22T05:45:25.153Z,41.86
2018-04-22T05:45:57.215Z,41.78
2018-04-22T05:46:29.361Z,41.97
2018-04-22T05:47:01.417Z,41.88
2018-04-22T05:47:33.448Z,41.88
2018-04-22T05:48:05.488Z,41.78
2018-04-22T05:48:37.667Z,41.68
2018-04-22T05:49:09.638Z,41.68
2018-04-22T05:49:41.696Z,42.16
2018-04-22T05:50:13.700Z,41.88
2018-04-22T05:50:45.739Z,41.59
2018-04-22T05:51:17.718Z,41.88
2018-04-22T05:51:49.742Z,41.97
2018-04-22T05:52:21.839Z,41.78
2018-04-22T05:52:53.822Z,41.68
2018-04-22T05:53:25.836Z,41.68
2018-04-22T05:53:57.888Z,41.68
2018-04-22T05:54:29.900Z,41.78
2018-04-22T05:55:01.949Z,41.68
2018-04-22T05:55:33.990Z,41.68
2018-04-22T05:56:05.976Z,41.68
2018-04-22T05:56:38.010Z,41.68
2018-04-22T05:57:10.045Z,41.59
2018-04-22T05:57:42.038Z,41.49
2018-04-22T05:58:14.061Z,41.59
2018-04-22T05:58:46.090Z,41.88
2018-04-22T05:59:18.132Z,41.78
2018-04-22T05:59:50.171Z,41.59
2018-04-22T06:00:22.208Z,41.68
2018-04-22T06:00:54.268Z,41.88
2018-04-22T06:01:26.331Z,41.49
2018-04-22T06:01:58.359Z,41.78
2018-04-22T06:02:30.372Z,41.41
2018-04-22T06:03:02.426Z,41.89
2018-04-22T06:03:34.494Z,41.89
2018-04-22T06:04:06.518Z,41.99
2018-04-22T06:04:38.538Z,41.99
2018-04-22T06:05:10.568Z,41.89
2018-04-22T06:05:42.632Z,41.51
2018-04-22T06:06:14.642Z,41.99
2018-04-22T06:06:46.659Z,41.51
2018-04-22T06:07:18.693Z,41.41
2018-04-22T06:07:50.694Z,41.61
2018-04-22T06:08:22.710Z,41.61
2018-04-22T06:08:54.772Z,41.51
2018-04-22T06:09:26.778Z,41.51
2018-04-22T06:09:58.806Z,41.89
2018-04-22T06:10:30.867Z,41.71
2018-04-22T06:11:02.909Z,41.61
2018-04-22T06:11:34.918Z,41.61
2018-04-22T06:12:06.922Z,41.71
2018-04-22T06:12:38.984Z,41.99
2018-04-22T06:13:11.004Z,41.61
2018-04-22T06:13:43.015Z,41.8
2018-04-22T06:14:15.028Z,41.72
2018-04-22T06:14:47.065Z,42.11
2018-04-22T06:15:19.058Z,41.72
2018-04-22T06:15:51.208Z,41.72
2018-04-22T06:16:23.185Z,41.99
2018-04-22T06:16:55.231Z,41.63
2018-04-22T06:17:27.279Z,41.72
2018-04-22T06:17:59.291Z,41.82
2018-04-22T06:18:31.317Z,41.72
2018-04-22T06:19:03.393Z,41.53
2018-04-22T06:19:35.413Z,41.53
2018-04-22T06:20:07.445Z,41.63
2018-04-22T06:20:39.461Z,41.53
2018-04-22T06:21:11.517Z,41.53
2018-04-22T06:21:43.548Z,41.53
2018-04-22T06:22:15.603Z,42.02
2018-04-22T06:22:47.770Z,41.53
2018-04-22T06:23:19.869Z,41.63
2018-04-22T06:23:51.909Z,41.63
2018-04-22T06:24:23.951Z,41.63
2018-04-22T06:24:56.001Z,41.53
2018-04-22T06:25:28.102Z,41.63
2018-04-22T06:26:00.761Z,41.53
2018-04-22T06:26:32.770Z,41.63
2018-04-22T06:27:04.812Z,41.63
2018-04-22T06:27:36.828Z,41.63
2018-04-22T06:28:08.865Z,41.44
2018-04-22T06:28:40.850Z,41.82
2018-04-22T06:29:12.973Z,41.84
2018-04-22T06:29:45.032Z,41.55
2018-04-22T06:30:17.072Z,41.44
2018-04-22T06:30:49.083Z,41.55
2018-04-22T06:31:21.183Z,41.75
2018-04-22T06:31:53.209Z,41.36
2018-04-22T06:32:25.204Z,41.65
2018-04-22T06:32:57.305Z,41.75
2018-04-22T06:33:29.342Z,41.17
2018-04-22T06:34:01.339Z,41.65
2018-04-22T06:34:33.362Z,41.55
2018-04-22T06:35:05.970Z,41.65
2018-04-22T06:35:38.034Z,41.36
2018-04-22T06:36:10.056Z,41.36
2018-04-22T06:36:42.166Z,41.36
2018-04-22T06:37:14.204Z,41.27
2018-04-22T06:37:46.227Z,41.36
2018-04-22T06:38:18.282Z,41.36
2018-04-22T06:38:50.297Z,41.27
2018-04-22T06:39:22.324Z,41.46
2018-04-22T06:39:54.345Z,41.36
2018-04-22T06:40:26.528Z,41.27
2018-04-22T06:40:58.578Z,41.36
2018-04-22T06:41:30.625Z,41.55
2018-04-22T06:42:02.627Z,41.46
2018-04-22T06:42:34.648Z,41.57
2018-04-22T06:43:06.684Z,41.27
2018-04-22T06:43:38.693Z,41.38
2018-04-22T06:44:10.725Z,41.38
2018-04-22T06:44:42.786Z,41.19
2018-04-22T06:45:14.846Z,41.38
2018-04-22T06:45:47.602Z,41.57
2018-04-22T06:46:19.622Z,41.19
2018-04-22T06:46:51.624Z,41.28
2018-04-22T06:47:23.610Z,41.38
2018-04-22T06:47:55.633Z,41.28
2018-04-22T06:48:28.376Z,41.28
2018-04-22T06:49:00.432Z,41.19
2018-04-22T06:49:32.434Z,41.09
2018-04-22T06:50:04.445Z,40.99
2018-04-22T06:50:36.467Z,41.28
2018-04-22T06:51:08.497Z,40.99
2018-04-22T06:51:40.472Z,41.09
2018-04-22T06:52:12.642Z,41.28
2018-04-22T06:52:44.702Z,41.28